createdAt,value
2019-04-20T00:00:41.678Z,21.02
2019-04-20T00:03:09.598Z,22.67
2019-04-20T00:05:41.295Z,24.72
2019-04-20T00:08:16.817Z,24.20
2019-04-20T00:10:54.335Z,21.17
2019-04-20T00:13:24.247Z,22.13
2019-04-20T00:15:49.546Z,24.02
2019-04-20T00:18:21.074Z,23.20
2019-04-20T00:21:00.244Z,24.00
2019-04-20T00:23:36.747Z,23.80
2019-04-20T00:26:32.151Z,24.50
2019-04-20T00:29:06.938Z,23.67
2019-04-20T00:31:39.288Z,25.15
2019-04-20T00:34:03.787Z,23.47
2019-04-20T00:36:27.262Z,25.75
2019-04-20T00:39:03.714Z,26.55
2019-04-20T00:41:35.107Z,27.50
2019-04-20T00:44:12.241Z,27.25
2019-04-20T00:46:53.491Z,28.52
2019-04-20T00:49:27.291Z,29.45
2019-04-20T00:52:05.170Z,30.40
2019-04-20T00:54:13.627Z,30.77
2019-04-20T00:56:45.349Z,30.95
2019-04-20T00:59:27.570Z,31.65
2019-04-20T01:02:06.433Z,31.77
2019-04-20T01:04:44.685Z,32.83
2019-04-20T01:07:06.209Z,33.30
2019-04-20T01:09:27.039Z,32.73
2019-04-20T01:11:58.469Z,31.07
2019-04-20T01:14:37.945Z,30.85
2019-04-20T01:17:11.406Z,30.90
2019-04-20T01:19:32.842Z,31.07
2019-04-20T01:22:07.888Z,29.30
2019-04-20T01:24:39.891Z,30.60
2019-04-20T01:27:23.682Z,28.90
2019-04-20T01:29:46.766Z,30.60
2019-04-20T01:32:20.986Z,29.37
2019-04-20T01:34:55.090Z,30.10
2019-04-20T01:37:31.735Z,29.48
2019-04-20T01:39:52.021Z,30.55
2019-04-20T01:42:19.254Z,31.10
2019-04-20T01:44:52.364Z,30.52
2019-04-20T01:47:23.847Z,28.92
2019-04-20T01:49:59.895Z,29.65
2019-04-20T01:52:34.990Z,29.02
2019-04-20T01:55:27.782Z,29.72
2019-04-20T01:58:07.701Z,30.23
2019-04-20T02:00:32.772Z,30.68
2019-04-20T02:03:15.004Z,27.95
2019-04-20T02:05:51.427Z,29.65
2019-04-20T02:08:21.477Z,29.40
2019-04-20T02:10:54.427Z,29.85
2019-04-20T02:13:26.389Z,31.87
2019-04-20T02:16:11.478Z,30.27
2019-04-20T02:18:44.237Z,28.98
2019-04-20T02:21:25.733Z,30.85
2019-04-20T02:23:48.287Z,31.85
2019-04-20T02:26:12.528Z,29.00
2019-04-20T02:29:05.686Z,29.57
2019-04-20T02:32:01.466Z,29.48
2019-04-20T02:34:29.228Z,29.63
2019-04-20T02:37:30.182Z,28.55
2019-04-20T02:39:46.254Z,28.30
2019-04-20T02:42:17.588Z,29.23
2019-04-20T02:47:24.633Z,26.52
2019-04-20T02:49:52.410Z,27.93
2019-04-20T02:52:33.512Z,27.87
2019-04-20T02:57:33.498Z,29.02
2019-04-20T03:00:09.145Z,28.95
2019-04-20T03:02:16.739Z,29.23
2019-04-20T03:04:40.005Z,31.15
2019-04-20T03:07:15.684Z,29.37
2019-04-20T03:09:50.167Z,29.75
2019-04-20T03:12:32.886Z,30.02
2019-04-20T03:14:52.786Z,29.27
2019-04-20T03:17:37.097Z,29.65
2019-04-20T03:19:57.271Z,29.27
2019-04-20T03:23:00.952Z,30.17
2019-04-20T03:25:15.216Z,31.07
2019-04-20T03:27:40.982Z,30.08
2019-04-20T03:31:16.511Z,30.10
2019-04-20T03:35:46.026Z,30.80
2019-04-20T03:38:10.707Z,31.02
2019-04-20T03:40:38.969Z,31.17
2019-04-20T03:42:54.812Z,31.12
2019-04-20T03:45:27.084Z,29.75
2019-04-20T03:48:10.270Z,31.12
2019-04-20T03:50:50.446Z,30.82
2019-04-20T03:53:25.226Z,30.75
2019-04-20T03:56:18.408Z,32.00
2019-04-20T03:58:47.144Z,32.58
2019-04-20T04:01:35.853Z,32.10
2019-04-20T04:04:05.373Z,32.00
2019-04-20T04:08:57.594Z,30.97
2019-04-20T04:11:31.492Z,31.23
2019-04-20T04:13:48.185Z,31.70
2019-04-20T04:16:21.886Z,32.00
2019-04-20T04:19:01.583Z,32.53
2019-04-20T04:21:41.145Z,32.42
2019-04-20T04:24:09.575Z,32.60
2019-04-20T04:26:42.752Z,33.78
2019-04-20T04:29:27.215Z,34.58
2019-04-20T04:32:03.767Z,33.70
2019-04-20T04:34:27.471Z,34.67
2019-04-20T04:37:00.531Z,35.78
2019-04-20T04:39:32.237Z,33.85
2019-04-20T04:42:11.653Z,33.63
2019-04-20T04:44:26.387Z,34.75
2019-04-20T04:46:53.386Z,35.00
2019-04-20T04:49:25.823Z,35.65
2019-04-20T04:51:58.754Z,33.40
2019-04-20T04:54:28.921Z,33.02
2019-04-20T04:56:52.658Z,32.30
2019-04-20T04:59:24.004Z,31.90
2019-04-20T05:01:56.733Z,31.07
2019-04-20T05:05:07.990Z,32.03
2019-04-20T05:07:46.385Z,32.42
2019-04-20T05:10:03.549Z,33.35
2019-04-20T05:12:35.942Z,33.78
2019-04-20T05:15:21.192Z,33.55
2019-04-20T05:18:02.071Z,32.33
2019-04-20T05:20:37.245Z,32.65
2019-04-20T05:23:06.061Z,31.82
2019-04-20T05:25:56.964Z,32.38
2019-04-20T05:28:27.620Z,31.10
2019-04-20T05:30:52.486Z,31.55
2019-04-20T05:33:30.235Z,31.33
2019-04-20T05:36:16.373Z,32.48
2019-04-20T05:38:47.203Z,30.80
2019-04-20T05:41:12.830Z,32.73
2019-04-20T05:43:49.315Z,33.10
2019-04-20T05:46:21.691Z,32.08
2019-04-20T05:48:59.759Z,32.78
2019-04-20T05:51:29.514Z,33.35
2019-04-20T05:54:01.144Z,31.68
2019-04-20T05:56:35.479Z,32.33
2019-04-20T05:58:59.427Z,32.17
2019-04-20T06:01:40.857Z,32.85
2019-04-20T06:04:04.244Z,32.08
2019-04-20T06:06:37.735Z,31.10
2019-04-20T06:09:23.048Z,32.25
2019-04-20T06:12:07.507Z,33.33
2019-04-20T06:14:31.616Z,31.60
2019-04-20T06:17:11.275Z,32.75
2019-04-20T06:19:54.655Z,30.88
2019-04-20T06:22:37.905Z,29.65
2019-04-20T06:27:45.074Z,29.90
2019-04-20T06:30:12.277Z,29.02
2019-04-20T06:33:31.314Z,27.62
2019-04-20T06:41:05.250Z,26.20
2019-04-20T06:43:31.487Z,25.55
2019-04-20T06:46:09.817Z,21.33
2019-04-20T06:48:40.286Z,22.35
2019-04-20T06:51:09.226Z,19.85
2019-04-20T06:53:47.393Z,19.20
2019-04-20T06:56:30.727Z,19.35
2019-04-20T06:59:20.010Z,18.70
2019-04-20T07:01:40.221Z,19.20
2019-04-20T07:04:29.014Z,18.95
2019-04-20T07:09:18.413Z,18.75
2019-04-20T07:11:42.661Z,17.57
2019-04-20T07:13:59.636Z,18.35
2019-04-20T07:16:53.315Z,17.67
2019-04-20T07:19:31.240Z,18.93
2019-04-20T07:22:18.515Z,17.85
2019-04-20T07:27:19.785Z,19.17
2019-04-20T07:29:58.975Z,19.50
2019-04-20T07:32:46.123Z,18.70
2019-04-20T07:35:09.856Z,17.90
2019-04-20T07:40:16.183Z,18.30
2019-04-20T07:42:52.378Z,18.80
2019-04-20T07:45:28.404Z,19.12
2019-04-20T07:47:59.147Z,15.90
2019-04-20T07:50:22.850Z,15.25
2019-04-20T07:52:51.416Z,17.65
2019-04-20T07:55:37.056Z,16.25
2019-04-20T07:57:57.536Z,15.83
2019-04-20T08:00:53.264Z,14.47
2019-04-20T08:03:20.436Z,14.65
2019-04-20T08:08:16.817Z,12.63
2019-04-20T08:10:45.244Z,13.27
2019-04-20T08:15:58.747Z,11.83
2019-04-20T08:20:58.482Z,12.53
2019-04-20T08:23:29.568Z,13.08
2019-04-20T08:25:54.380Z,12.60
2019-04-20T08:28:23.298Z,12.90
2019-04-20T08:31:13.913Z,12.63
2019-04-20T08:34:07.521Z,13.13
2019-04-20T08:36:36.041Z,14.53
2019-04-20T08:41:37.025Z,12.75
2019-04-20T08:46:55.813Z,14.38
2019-04-20T08:49:22.031Z,12.65
2019-04-20T08:51:55.040Z,12.07
2019-04-20T08:54:17.623Z,13.83
2019-04-20T08:56:42.476Z,12.70
2019-04-20T08:59:11.521Z,12.70
2019-04-20T09:01:42.639Z,12.37
2019-04-20T09:04:20.171Z,11.08
2019-04-20T09:06:58.790Z,10.78
2019-04-20T09:09:44.534Z,10.15
2019-04-20T09:12:07.546Z,11.28
2019-04-20T09:14:22.063Z,10.58
2019-04-20T09:17:14.114Z,11.30
2019-04-20T09:19:52.689Z,8.93
2019-04-20T09:22:45.726Z,9.10
2019-04-20T09:27:47.651Z,9.05
2019-04-20T09:30:30.315Z,8.90
2019-04-20T09:33:14.335Z,8.78
2019-04-20T09:35:43.249Z,8.18
2019-04-20T09:38:14.599Z,8.05
2019-04-20T09:40:50.588Z,8.00
2019-04-20T09:43:08.806Z,7.37
2019-04-20T09:45:48.131Z,8.00
2019-04-20T09:48:23.345Z,7.22
2019-04-20T09:51:11.538Z,7.42
2019-04-20T09:53:33.878Z,8.28
2019-04-20T09:56:06.616Z,7.75
2019-04-20T09:58:45.164Z,7.95
2019-04-20T10:01:11.110Z,8.20
2019-04-20T10:03:29.126Z,9.18
2019-04-20T10:05:59.427Z,9.15
2019-04-20T10:08:34.009Z,9.18
2019-04-20T10:11:01.634Z,9.28
2019-04-20T10:13:32.211Z,8.75
2019-04-20T10:16:03.773Z,9.23
2019-04-20T10:18:39.283Z,8.53
2019-04-20T10:21:07.340Z,8.30
2019-04-20T10:23:38.701Z,8.30
2019-04-20T10:26:09.126Z,8.20
2019-04-20T10:28:39.493Z,7.80
2019-04-20T10:31:10.656Z,7.83
2019-04-20T10:33:41.753Z,8.05
2019-04-20T10:36:17.348Z,6.67
2019-04-20T10:38:48.523Z,7.10
2019-04-20T10:41:29.622Z,6.67
2019-04-20T10:44:00.768Z,6.65
2019-04-20T10:46:31.195Z,6.85
2019-04-20T10:49:04.306Z,6.47
2019-04-20T10:51:35.595Z,6.60
2019-04-20T10:54:06.699Z,5.60
2019-04-20T10:56:41.451Z,6.67
2019-04-20T10:59:11.941Z,6.60
2019-04-20T11:01:43.419Z,6.00
2019-04-20T11:04:14.693Z,6.58
2019-04-20T11:06:46.925Z,6.53
2019-04-20T11:09:18.474Z,7.30
2019-04-20T11:11:50.203Z,7.00
2019-04-20T11:14:26.376Z,7.65
2019-04-20T11:16:52.595Z,7.53
2019-04-20T11:19:23.334Z,7.28
2019-04-20T11:21:54.450Z,7.17
2019-04-20T11:24:25.948Z,7.67
2019-04-20T11:26:56.429Z,8.40
2019-04-20T11:29:26.751Z,7.35
2019-04-20T11:31:58.133Z,6.62
2019-04-20T11:34:42.465Z,6.75
2019-04-20T11:37:13.413Z,6.90
2019-04-20T11:39:45.165Z,7.00
2019-04-20T11:42:17.390Z,7.12
2019-04-20T11:44:48.924Z,7.15
2019-04-20T11:47:19.196Z,6.75
2019-04-20T11:49:49.507Z,7.60
2019-04-20T11:52:21.541Z,7.15
2019-04-20T11:54:54.563Z,7.47
2019-04-20T11:57:29.265Z,8.38
2019-04-20T12:00:01.126Z,6.90
2019-04-20T12:02:44.378Z,6.83
2019-04-20T12:05:30.537Z,7.20
2019-04-20T12:08:05.077Z,7.20
2019-04-20T12:10:37.094Z,7.40
2019-04-20T12:13:07.935Z,6.25
2019-04-20T12:15:38.956Z,6.75
2019-04-20T12:18:09.615Z,6.72
2019-04-20T12:20:40.878Z,6.65
2019-04-20T12:23:12.676Z,7.40
2019-04-20T12:25:44.641Z,6.35
2019-04-20T12:28:15.755Z,7.50
2019-04-20T12:30:46.174Z,7.10
2019-04-20T12:33:17.694Z,6.53
2019-04-20T12:35:48.292Z,7.25
2019-04-20T12:38:19.104Z,7.33
2019-04-20T12:40:50.327Z,7.47
2019-04-20T12:43:20.739Z,6.47
2019-04-20T12:45:51.691Z,6.75
2019-04-20T12:48:22.135Z,6.05
2019-04-20T12:50:57.474Z,6.40
2019-04-20T12:53:28.628Z,5.30
2019-04-20T12:55:59.236Z,5.75
2019-04-20T12:58:30.570Z,6.17
2019-04-20T13:01:02.474Z,5.58
2019-04-20T13:03:33.495Z,5.85
2019-04-20T13:06:03.849Z,6.15
2019-04-20T13:08:41.158Z,6.10
2019-04-20T13:11:08.760Z,5.70
2019-04-20T13:13:44.212Z,6.67
2019-04-20T13:16:20.612Z,7.12
2019-04-20T13:18:55.232Z,6.30
2019-04-20T13:21:27.002Z,6.53
2019-04-20T13:23:58.495Z,6.30
2019-04-20T13:26:29.016Z,6.50
2019-04-20T13:29:11.070Z,6.85
2019-04-20T13:31:37.943Z,6.65
2019-04-20T13:34:09.557Z,7.10
2019-04-20T13:36:40.484Z,6.50
2019-04-20T13:39:10.705Z,6.50
2019-04-20T13:41:42.217Z,7.10
2019-04-20T13:44:13.668Z,7.00
2019-04-20T13:46:52.182Z,6.30
2019-04-20T13:49:23.019Z,6.85
2019-04-20T13:51:54.578Z,7.20
2019-04-20T13:54:28.007Z,6.40
2019-04-20T13:57:00.160Z,6.40
2019-04-20T13:59:50.738Z,6.97
2019-04-20T14:02:23.472Z,7.22
2019-04-20T14:04:57.424Z,6.65
2019-04-20T14:07:29.295Z,7.60
2019-04-20T14:09:59.609Z,7.85
2019-04-20T14:12:36.890Z,7.60
2019-04-20T14:15:02.874Z,6.72
2019-04-20T14:17:34.978Z,6.72
2019-04-20T14:20:11.425Z,6.75
2019-04-20T14:22:38.920Z,6.67
2019-04-20T14:25:09.492Z,6.78
2019-04-20T14:27:40.272Z,6.67
2019-04-20T14:30:11.134Z,6.60
2019-04-20T14:32:42.942Z,6.50
2019-04-20T14:35:14.523Z,6.15
2019-04-20T14:37:45.971Z,6.15
2019-04-20T14:40:18.665Z,6.10
2019-04-20T14:42:53.000Z,6.62
2019-04-20T14:47:54.038Z,6.60
2019-04-20T14:50:27.521Z,6.65
2019-04-20T14:52:57.920Z,6.28
2019-04-20T14:55:29.224Z,6.53
2019-04-20T14:58:31.442Z,6.25
2019-04-20T15:01:23.037Z,6.50
2019-04-20T15:03:59.858Z,6.45
2019-04-20T15:06:25.820Z,6.17
2019-04-20T15:09:00.954Z,6.08
2019-04-20T15:11:38.338Z,6.65
2019-04-20T15:14:08.860Z,5.72
2019-04-20T15:16:40.434Z,5.75
2019-04-20T15:19:13.785Z,5.97
2019-04-20T15:21:47.294Z,6.40
2019-04-20T15:24:17.904Z,6.30
2019-04-20T15:26:48.760Z,6.47
2019-04-20T15:29:20.159Z,5.72
2019-04-20T15:31:52.283Z,6.45
2019-04-20T15:34:24.650Z,5.90
2019-04-20T15:36:55.962Z,5.78
2019-04-20T15:39:27.350Z,5.65
2019-04-20T15:41:59.096Z,5.83
2019-04-20T15:44:29.473Z,5.12
2019-04-20T15:46:59.691Z,5.65
2019-04-20T15:49:30.018Z,5.47
2019-04-20T15:52:01.653Z,5.50
2019-04-20T15:54:33.705Z,4.87
2019-04-20T15:57:12.329Z,5.53
2019-04-20T15:59:35.964Z,5.00
2019-04-20T16:02:09.257Z,5.58
2019-04-20T16:07:17.182Z,4.75
2019-04-20T16:09:48.453Z,4.40
2019-04-20T16:12:20.695Z,4.75
2019-04-20T16:14:51.420Z,4.60
2019-04-20T16:17:24.286Z,4.42
2019-04-20T16:20:09.113Z,4.53
2019-04-20T16:22:36.303Z,4.33
2019-04-20T16:25:15.452Z,4.08
2019-04-20T16:27:45.830Z,4.58
2019-04-20T16:30:17.850Z,3.98
2019-04-20T16:32:48.296Z,4.17
2019-04-20T16:35:18.753Z,3.70
2019-04-20T16:37:50.757Z,4.12
2019-04-20T16:40:25.322Z,3.92
2019-04-20T16:42:56.389Z,4.05
2019-04-20T16:45:27.867Z,3.60
2019-04-20T16:47:59.988Z,3.87
2019-04-20T16:50:31.098Z,3.47
2019-04-20T16:53:02.946Z,3.10
2019-04-20T16:55:34.740Z,2.98
2019-04-20T16:58:06.321Z,3.42
2019-04-20T17:00:37.713Z,3.42
2019-04-20T17:03:09.118Z,3.27
2019-04-20T17:05:39.543Z,3.00
2019-04-20T17:08:11.271Z,3.00
2019-04-20T17:10:42.053Z,2.85
2019-04-20T17:13:16.719Z,2.90
2019-04-20T17:15:49.848Z,3.10
2019-04-20T17:18:21.292Z,3.58
2019-04-20T17:20:53.366Z,3.15
2019-04-20T17:23:27.651Z,3.52
2019-04-20T17:25:59.819Z,3.83
2019-04-20T17:28:49.035Z,3.60
2019-04-20T17:31:33.569Z,3.87
2019-04-20T17:34:25.025Z,3.47
2019-04-20T17:36:39.894Z,3.90
2019-04-20T17:39:13.443Z,3.50
2019-04-20T17:42:01.862Z,3.92
2019-04-20T17:44:30.298Z,3.67
2019-04-20T17:46:58.682Z,3.27
2019-04-20T17:49:31.406Z,3.30
2019-04-20T17:52:12.330Z,4.17
2019-04-20T17:54:27.192Z,4.33
2019-04-20T17:56:58.203Z,3.98
2019-04-20T17:59:30.283Z,4.10
2019-04-20T18:02:17.737Z,4.00
2019-04-20T18:05:17.599Z,3.77
2019-04-20T18:07:40.721Z,3.85
2019-04-20T18:10:11.459Z,4.80
2019-04-20T18:12:34.386Z,4.62
2019-04-20T18:15:21.743Z,4.37
2019-04-20T18:18:15.402Z,4.40
2019-04-20T18:20:32.713Z,4.55
2019-04-20T18:23:04.331Z,5.03
2019-04-20T18:26:01.498Z,4.40
2019-04-20T18:28:20.925Z,4.45
2019-04-20T18:30:52.550Z,5.05
2019-04-20T18:33:24.959Z,4.40
2019-04-20T18:35:54.055Z,4.40
2019-04-20T18:38:26.057Z,4.87
2019-04-20T18:41:02.669Z,4.80
2019-04-20T18:43:29.580Z,4.10
2019-04-20T18:46:18.051Z,4.30
2019-04-20T18:48:54.359Z,4.03
2019-04-20T18:51:05.846Z,4.00
2019-04-20T18:53:42.714Z,4.67
2019-04-20T18:56:09.503Z,4.05
2019-04-20T18:58:40.831Z,4.55
2019-04-20T19:01:12.848Z,3.92
2019-04-20T19:03:45.533Z,3.65
2019-04-20T19:06:16.032Z,4.08
2019-04-20T19:08:51.750Z,4.33
2019-04-20T19:11:21.620Z,3.90
2019-04-20T19:14:17.387Z,4.65
2019-04-20T19:16:55.693Z,4.28
2019-04-20T19:19:25.754Z,4.05
2019-04-20T19:21:49.944Z,4.47
2019-04-20T19:24:26.022Z,3.85
2019-04-20T19:26:58.324Z,4.87
2019-04-20T19:29:34.403Z,4.40
2019-04-20T19:32:17.958Z,4.60
2019-04-20T19:34:44.811Z,4.72
2019-04-20T19:37:14.070Z,5.17
2019-04-20T19:39:49.397Z,5.40
2019-04-20T19:42:25.233Z,6.22
2019-04-20T19:44:53.876Z,6.37
2019-04-20T19:47:35.317Z,5.60
2019-04-20T19:49:56.448Z,5.40
2019-04-20T19:52:46.354Z,5.70
2019-04-20T19:57:37.224Z,5.80
2019-04-20T20:02:25.867Z,5.17
2019-04-20T20:05:02.727Z,4.75
2019-04-20T20:07:41.196Z,5.80
2019-04-20T20:10:07.754Z,5.20
2019-04-20T20:12:49.382Z,5.95
2019-04-20T20:15:24.267Z,5.60
2019-04-20T20:18:12.778Z,6.15
2019-04-20T20:20:41.177Z,6.20
2019-04-20T20:22:57.286Z,6.10
2019-04-20T20:25:32.964Z,6.17
2019-04-20T20:28:13.444Z,6.00
2019-04-20T20:30:42.195Z,6.90
2019-04-20T20:33:22.107Z,6.60
2019-04-20T20:35:45.893Z,6.60
2019-04-20T20:38:18.335Z,6.72
2019-04-20T20:40:52.408Z,6.62
2019-04-20T20:43:21.788Z,6.55
2019-04-20T20:45:56.431Z,6.58
2019-04-20T20:48:30.034Z,6.58
2019-04-20T20:51:04.917Z,6.37
2019-04-20T20:53:35.358Z,6.05
2019-04-20T20:56:09.242Z,5.78
2019-04-20T20:58:43.850Z,6.62
2019-04-20T21:01:09.969Z,6.15
2019-04-20T21:03:43.529Z,6.20
2019-04-20T21:06:11.755Z,7.03
2019-04-20T21:08:48.685Z,7.50
2019-04-20T21:11:22.005Z,8.18
2019-04-20T21:13:50.989Z,7.15
2019-04-20T21:16:26.638Z,7.53
2019-04-20T21:19:12.939Z,8.78
2019-04-20T21:21:39.035Z,8.20
2019-04-20T21:24:10.828Z,8.50
2019-04-20T21:26:44.310Z,8.65
2019-04-20T21:29:10.425Z,7.92
2019-04-20T21:31:43.417Z,8.75
2019-04-20T21:34:18.099Z,8.18
2019-04-20T21:36:47.282Z,8.55
2019-04-20T21:41:58.532Z,9.38
2019-04-20T21:44:28.499Z,10.00
2019-04-20T21:46:56.224Z,11.28
2019-04-20T21:49:43.692Z,10.15
2019-04-20T21:52:02.960Z,12.00
2019-04-20T21:54:30.218Z,11.55
2019-04-20T21:57:03.855Z,11.53
2019-04-20T21:59:41.960Z,11.15
2019-04-20T22:02:16.692Z,11.45
2019-04-20T22:07:08.119Z,11.15
2019-04-20T22:09:45.295Z,11.68
2019-04-20T22:12:11.949Z,11.80
2019-04-20T22:14:43.818Z,12.37
2019-04-20T22:17:21.135Z,12.63
2019-04-20T22:20:02.929Z,13.03
2019-04-20T22:22:38.692Z,12.35
2019-04-20T22:25:02.601Z,13.00
2019-04-20T22:27:27.871Z,12.88
2019-04-20T22:29:54.460Z,11.93
2019-04-20T22:32:25.874Z,12.73
2019-04-20T22:35:01.521Z,11.40
2019-04-20T22:37:31.911Z,12.78
2019-04-20T22:40:03.266Z,14.13
2019-04-20T22:42:42.610Z,13.72
2019-04-20T22:45:12.395Z,12.95
2019-04-20T22:47:40.845Z,14.00
2019-04-20T22:50:24.939Z,14.40
2019-04-20T22:52:55.289Z,15.58
2019-04-20T22:55:41.088Z,16.93
2019-04-20T22:57:57.433Z,18.37
2019-04-20T23:00:31.288Z,16.23
2019-04-20T23:02:52.499Z,18.07
2019-04-20T23:05:22.838Z,16.02
2019-04-20T23:07:53.076Z,15.75
2019-04-20T23:10:30.453Z,16.12
2019-04-20T23:12:58.259Z,15.45
2019-04-20T23:15:28.054Z,15.58
2019-04-20T23:17:58.377Z,14.87
2019-04-20T23:20:32.645Z,14.95
2019-04-20T23:23:02.883Z,15.48
2019-04-20T23:25:36.596Z,15.30
2019-04-20T23:28:11.349Z,14.18
2019-04-20T23:30:40.682Z,14.40
2019-04-20T23:33:11.803Z,12.30
2019-04-20T23:35:46.481Z,12.10
2019-04-20T23:38:17.975Z,11.60
2019-04-20T23:40:47.833Z,11.60
2019-04-20T23:43:25.386Z,11.33
2019-04-20T23:46:19.616Z,11.00
2019-04-20T23:49:19.976Z,11.53
2019-04-20T23:52:05.518Z,11.18
2019-04-20T23:54:20.180Z,11.45
2019-04-20T23:56:45.860Z,12.10
2019-04-20T23:59:19.210Z,12.43
